createdAt,value
2023-03-29T00:01:36.018Z,101480.53
2023-03-29T00:22:26.766Z,101455.63
2023-03-29T00:24:37.402Z,101450.72
2023-03-29T00:26:32.930Z,101453.50
2023-03-29T00:28:28.320Z,101447.53
2023-03-29T00:30:23.724Z,101447.59
2023-03-29T00:32:18.845Z,101443.16
2023-03-29T00:34:14.394Z,101432.19
2023-03-29T00:36:11.362Z,101436.50
2023-03-29T00:38:09.567Z,101435.72
2023-03-29T00:40:07.885Z,101442.63
2023-03-29T00:42:03.331Z,101434.91
2023-03-29T00:44:01.224Z,101439.25
2023-03-29T00:45:56.622Z,101436.94
2023-03-29T00:47:55.750Z,101430.19
2023-03-29T00:49:52.302Z,101434.56
2023-03-29T00:51:48.439Z,101428.47
2023-03-29T00:53:50.260Z,101427.72
2023-03-29T00:55:50.373Z,101432.28
2023-03-29T00:57:47.386Z,101418.31
2023-03-29T00:59:46.862Z,101425.78
2023-03-29T01:01:46.830Z,101416.59
2023-03-29T01:03:48.227Z,101418.34
2023-03-29T01:05:48.978Z,101412.50
2023-03-29T01:07:50.503Z,101409.09
2023-03-29T01:09:53.420Z,101409.19
2023-03-29T01:11:54.291Z,101399.75
2023-03-29T01:13:55.388Z,101398.94
2023-03-29T01:15:51.479Z,101399.00
2023-03-29T01:17:50.586Z,101394.97
2023-03-29T01:19:59.054Z,101393.28
2023-03-29T01:22:09.792Z,101388.91
2023-03-29T01:24:39.323Z,101375.66
2023-03-29T01:26:51.970Z,101381.69
2023-03-29T01:28:59.460Z,101373.13
2023-03-29T01:31:07.951Z,101368.63
2023-03-29T01:33:11.639Z,101370.34
2023-03-29T01:35:15.557Z,101364.81
2023-03-29T01:37:30.789Z,101367.94
2023-03-29T01:39:35.128Z,101351.16
2023-03-29T01:55:04.944Z,101332.69
2023-03-29T01:58:50.091Z,101325.28
2023-03-29T02:05:36.376Z,101317.19
2023-03-29T02:09:26.338Z,101311.31
2023-03-29T02:12:51.642Z,101310.03
2023-03-29T02:16:24.251Z,101304.00
2023-03-29T02:47:59.124Z,101278.59
2023-03-29T02:54:40.990Z,101269.88
2023-03-29T03:01:35.305Z,101256.97
2023-03-29T03:08:28.564Z,101258.28
2023-03-29T03:22:37.998Z,101249.03
2023-03-29T03:26:05.937Z,101233.59
2023-03-29T03:49:57.972Z,101218.78
2023-03-29T04:17:20.028Z,101205.50
2023-03-29T04:26:48.544Z,101199.81
2023-03-29T04:36:19.721Z,101197.59
2023-03-29T04:49:03.478Z,101201.75
2023-03-29T04:51:49.974Z,101193.25
2023-03-29T04:54:59.752Z,101188.91
2023-03-29T04:58:08.248Z,101188.28
2023-03-29T05:04:42.837Z,101186.44
2023-03-29T05:07:30.143Z,101185.63
2023-03-29T05:09:25.842Z,101179.72
2023-03-29T05:11:21.394Z,101172.78
2023-03-29T05:13:16.878Z,101161.63
2023-03-29T05:15:13.613Z,101169.28
2023-03-29T05:17:09.018Z,101171.63
2023-03-29T05:19:04.756Z,101171.56
2023-03-29T05:21:00.902Z,101170.78
2023-03-29T05:22:59.877Z,101165.59
2023-03-29T05:24:55.361Z,101167.22
2023-03-29T05:26:51.958Z,101166.44
2023-03-29T05:28:47.583Z,101163.69
2023-03-29T05:30:43.639Z,101161.78
2023-03-29T05:32:39.777Z,101159.94
2023-03-29T05:34:35.403Z,101157.44
2023-03-29T05:36:31.550Z,101156.41
2023-03-29T05:38:29.859Z,101164.16
2023-03-29T05:40:26.345Z,101150.22
2023-03-29T05:42:22.686Z,101154.44
2023-03-29T05:44:20.255Z,101155.28
2023-03-29T05:46:17.693Z,101152.59
2023-03-29T05:48:15.784Z,101155.22
2023-03-29T05:50:14.373Z,101154.28
2023-03-29T05:52:12.603Z,101156.63
2023-03-29T05:54:12.946Z,101147.84
2023-03-29T05:56:17.015Z,101148.75
2023-03-29T05:58:14.409Z,101152.13
2023-03-29T06:00:22.548Z,101151.19
2023-03-29T06:02:20.592Z,101152.03
2023-03-29T06:04:18.319Z,101156.41
2023-03-29T06:06:18.759Z,101164.97
2023-03-29T06:08:20.699Z,101159.53
2023-03-29T06:10:24.720Z,101156.00
2023-03-29T06:12:24.942Z,101158.44
2023-03-29T06:14:23.926Z,101157.53
2023-03-29T06:16:20.332Z,101153.03
2023-03-29T06:18:16.893Z,101154.78
2023-03-29T06:20:15.065Z,101154.00
2023-03-29T06:22:15.673Z,101154.84
2023-03-29T06:24:15.047Z,101160.97
2023-03-29T06:26:22.201Z,101159.22
2023-03-29T06:28:20.016Z,101155.69
2023-03-29T06:30:18.125Z,101152.94
2023-03-29T06:32:17.288Z,101149.41
2023-03-29T06:34:14.331Z,101153.63
2023-03-29T06:36:14.812Z,101155.97
2023-03-29T06:38:11.846Z,101151.63
2023-03-29T06:40:11.191Z,101147.16
2023-03-29T06:42:19.955Z,101155.66
2023-03-29T06:44:17.919Z,101148.63
2023-03-29T06:46:15.139Z,101151.13
2023-03-29T06:59:08.171Z,101133.03
2023-03-29T07:31:02.104Z,101133.16
2023-03-29T07:51:39.092Z,101129.88
2023-03-29T07:54:48.704Z,101140.59
2023-03-29T08:09:33.413Z,101125.38
2023-03-29T08:16:44.359Z,101121.63
2023-03-29T08:23:03.409Z,101123.75
2023-03-29T08:34:33.809Z,101126.56
2023-03-29T08:51:26.400Z,101096.34
2023-03-29T08:54:20.027Z,101096.88
2023-03-29T08:59:37.522Z,101091.53
2023-03-29T09:01:36.876Z,101090.06
2023-03-29T09:03:37.698Z,101092.69
2023-03-29T09:05:38.005Z,101083.50
2023-03-29T09:07:33.166Z,101081.25
2023-03-29T09:09:34.605Z,101090.56
2023-03-29T09:11:57.983Z,101087.94
2023-03-29T09:14:02.618Z,101080.63
2023-03-29T09:16:09.698Z,101081.56
2023-03-29T09:18:17.196Z,101078.06
2023-03-29T09:20:28.358Z,101065.75
2023-03-29T09:22:31.567Z,101072.59
2023-03-29T09:24:47.948Z,101075.34
2023-03-29T09:26:53.531Z,101068.91
2023-03-29T09:28:59.996Z,101068.22
2023-03-29T09:31:07.107Z,101073.44
2023-03-29T09:33:08.761Z,101080.22
2023-03-29T09:35:18.939Z,101066.69
2023-03-29T09:37:22.066Z,101067.34
2023-03-29T09:39:21.173Z,101063.44
2023-03-29T09:41:24.736Z,101049.94
2023-03-29T09:43:28.241Z,101052.63
2023-03-29T09:45:23.841Z,101060.88
2023-03-29T09:47:27.270Z,101054.81
2023-03-29T09:49:26.420Z,101062.19
2023-03-29T09:51:28.459Z,101047.66
2023-03-29T09:53:27.373Z,101055.28
2023-03-29T09:55:28.144Z,101052.41
2023-03-29T09:57:23.838Z,101051.66
2023-03-29T09:59:20.450Z,101042.44
2023-03-29T10:11:12.212Z,101042.59
2023-03-29T10:13:49.873Z,101034.41
2023-03-29T10:16:31.225Z,101049.88
2023-03-29T10:22:21.216Z,101022.09
2023-03-29T10:39:17.274Z,101015.31
2023-03-29T10:41:15.978Z,101027.06
2023-03-29T10:43:17.391Z,101022.59
2023-03-29T10:45:23.401Z,100995.72
2023-03-29T10:47:20.968Z,100996.34
2023-03-29T10:49:22.528Z,101015.03
2023-03-29T10:51:22.285Z,101009.03
2023-03-29T10:53:28.929Z,100997.75
2023-03-29T10:55:27.969Z,100986.97
2023-03-29T10:57:32.484Z,101009.75
2023-03-29T10:59:31.928Z,100994.69
2023-03-29T11:01:35.618Z,100981.81
2023-03-29T11:03:53.817Z,100990.50
2023-03-29T11:05:57.400Z,100989.44
2023-03-29T11:08:16.749Z,100985.59
2023-03-29T11:10:31.620Z,100974.59
2023-03-29T11:12:34.676Z,100987.28
2023-03-29T11:14:44.115Z,100985.63
2023-03-29T11:16:48.650Z,100968.72
2023-03-29T11:19:10.174Z,100977.84
2023-03-29T11:21:16.492Z,100979.56
2023-03-29T11:23:29.979Z,100970.44
2023-03-29T11:25:37.369Z,100992.22
2023-03-29T11:27:41.157Z,100984.28
2023-03-29T11:29:43.589Z,100977.13
2023-03-29T11:31:47.784Z,100973.16
2023-03-29T11:33:56.411Z,100962.94
2023-03-29T11:36:00.938Z,100972.75
2023-03-29T11:38:03.480Z,100964.75
2023-03-29T11:40:18.930Z,100968.06
2023-03-29T11:42:20.468Z,100951.16
2023-03-29T11:44:22.386Z,100952.91
2023-03-29T11:46:23.301Z,100952.03
2023-03-29T11:48:24.152Z,100944.03
2023-03-29T11:50:25.783Z,100958.88
2023-03-29T11:52:26.436Z,100946.59
2023-03-29T11:54:28.622Z,100938.88
2023-03-29T11:56:34.675Z,100951.19
2023-03-29T11:58:38.784Z,100947.00
2023-03-29T12:00:38.782Z,100949.69
2023-03-29T12:02:40.004Z,100951.44
2023-03-29T12:04:41.662Z,100937.66
2023-03-29T12:06:43.653Z,100944.00
2023-03-29T12:08:48.442Z,100943.72
2023-03-29T12:10:52.766Z,100944.72
2023-03-29T12:13:10.705Z,100949.63
2023-03-29T12:15:23.045Z,100936.28
2023-03-29T12:17:23.593Z,100936.03
2023-03-29T12:19:22.674Z,100922.03
2023-03-29T12:21:22.937Z,100932.69
2023-03-29T12:23:21.487Z,100926.72
2023-03-29T12:25:23.139Z,100934.75
2023-03-29T12:27:27.545Z,100938.91
2023-03-29T12:29:40.351Z,100921.72
2023-03-29T12:31:45.863Z,100931.03
2023-03-29T12:34:10.092Z,100937.41
2023-03-29T12:36:18.461Z,100929.09
2023-03-29T12:38:22.913Z,100939.44
2023-03-29T12:40:22.461Z,100936.09
2023-03-29T12:42:21.633Z,100923.25
2023-03-29T12:44:19.720Z,100919.78
2023-03-29T12:46:22.397Z,100920.34
2023-03-29T12:48:22.839Z,100920.75
2023-03-29T12:50:26.527Z,100921.44
2023-03-29T12:52:29.869Z,100906.19
2023-03-29T12:54:28.323Z,100905.91
2023-03-29T12:56:25.281Z,100896.78
2023-03-29T12:58:39.793Z,100902.84
2023-03-29T13:00:37.503Z,100898.56
2023-03-29T13:02:41.724Z,100904.25
2023-03-29T13:05:10.411Z,100887.22
2023-03-29T13:07:33.913Z,100881.41
2023-03-29T13:09:51.754Z,100877.53
2023-03-29T13:11:55.825Z,100872.66
2023-03-29T13:13:53.545Z,100872.25
2023-03-29T13:15:49.514Z,100880.16
2023-03-29T13:17:59.820Z,100879.06
2023-03-29T13:20:13.940Z,100878.09
2023-03-29T13:22:23.922Z,100879.47
2023-03-29T13:24:45.998Z,100879.47
2023-03-29T13:26:55.866Z,100889.03
2023-03-29T13:29:18.436Z,100869.47
2023-03-29T13:31:30.058Z,100874.34
2023-03-29T13:33:44.805Z,100890.41
2023-03-29T13:35:52.961Z,100890.97
2023-03-29T13:37:58.693Z,100890.00
2023-03-29T13:39:55.776Z,100879.06
2023-03-29T13:41:52.828Z,100866.44
2023-03-29T13:43:56.652Z,100869.50
2023-03-29T13:46:07.476Z,100871.16
2023-03-29T13:48:07.904Z,100876.44
2023-03-29T13:50:10.348Z,100873.91
2023-03-29T13:52:16.799Z,100879.63
2023-03-29T13:54:27.849Z,100872.13
2023-03-29T13:56:32.059Z,100877.66
2023-03-29T13:58:37.776Z,100874.19
2023-03-29T14:00:39.135Z,100870.59
2023-03-29T14:02:41.211Z,100875.03
2023-03-29T14:04:47.105Z,100875.44
2023-03-29T14:06:53.242Z,100872.78
2023-03-29T14:08:51.070Z,100864.91
2023-03-29T14:10:48.739Z,100870.56
2023-03-29T14:12:46.218Z,100860.63
2023-03-29T14:14:58.353Z,100876.69
2023-03-29T14:16:59.543Z,100873.22
2023-03-29T14:18:56.413Z,100876.69
2023-03-29T14:20:56.360Z,100878.38
2023-03-29T14:22:56.201Z,100871.97
2023-03-29T14:24:59.169Z,100876.13
2023-03-29T14:26:58.406Z,100867.13
2023-03-29T14:29:01.417Z,100882.09
2023-03-29T14:30:58.252Z,100871.00
2023-03-29T14:32:57.119Z,100869.31
2023-03-29T14:34:53.922Z,100874.75
2023-03-29T14:36:54.498Z,100867.41
2023-03-29T14:38:59.783Z,100861.16
2023-03-29T14:40:57.752Z,100862.41
2023-03-29T14:42:54.806Z,100863.34
2023-03-29T14:44:54.812Z,100857.69
2023-03-29T14:46:53.299Z,100850.66
2023-03-29T14:48:54.098Z,100861.31
2023-03-29T14:50:51.902Z,100865.72
2023-03-29T14:52:52.612Z,100853.69
2023-03-29T14:54:57.870Z,100858.66
2023-03-29T14:56:57.850Z,100848.28
2023-03-29T14:58:58.882Z,100848.28
2023-03-29T15:00:57.977Z,100840.66
2023-03-29T15:03:00.459Z,100842.19
2023-03-29T15:05:06.084Z,100848.84
2023-03-29T15:07:02.266Z,100845.53
2023-03-29T15:09:05.135Z,100847.19
2023-03-29T15:11:08.658Z,100851.88
2023-03-29T15:13:10.620Z,100847.06
2023-03-29T15:15:10.575Z,100847.59
2023-03-29T15:17:12.004Z,100849.81
2023-03-29T15:19:07.678Z,100841.50
2023-03-29T15:21:04.024Z,100832.47
2023-03-29T15:23:02.665Z,100839.56
2023-03-29T15:25:01.953Z,100838.72
2023-03-29T15:27:06.540Z,100831.38
2023-03-29T15:29:09.043Z,100828.34
2023-03-29T15:31:12.912Z,100821.69
2023-03-29T15:33:16.785Z,100819.19
2023-03-29T15:35:25.937Z,100812.53
2023-03-29T15:37:21.726Z,100804.66
2023-03-29T15:39:19.767Z,100805.19
2023-03-29T15:41:16.209Z,100800.47
2023-03-29T15:43:14.434Z,100794.25
2023-03-29T15:45:17.154Z,100797.44
2023-03-29T15:47:13.305Z,100795.34
2023-03-29T15:49:08.821Z,100795.34
2023-03-29T15:51:06.812Z,100782.63
2023-03-29T15:53:14.167Z,100780.50
2023-03-29T15:55:14.910Z,100787.72
2023-03-29T15:57:15.667Z,100780.78
2023-03-29T15:59:15.470Z,100776.09
2023-03-29T16:01:19.180Z,100768.88
2023-03-29T16:03:18.114Z,100755.69
2023-03-29T16:05:13.565Z,100765.25
2023-03-29T16:07:13.660Z,100762.19
2023-03-29T16:09:12.054Z,100762.47
2023-03-29T16:11:08.217Z,100766.50
2023-03-29T16:13:03.397Z,100764.13
2023-03-29T16:15:02.211Z,100761.38
2023-03-29T16:17:01.173Z,100766.22
2023-03-29T16:18:56.906Z,100762.06
2023-03-29T16:20:54.117Z,100765.84
2023-03-29T16:23:05.744Z,100760.31
2023-03-29T16:25:14.908Z,100762.34
2023-03-29T16:27:10.444Z,100756.00
2023-03-29T16:29:05.572Z,100753.66
2023-03-29T16:31:03.602Z,100759.56
2023-03-29T16:33:01.434Z,100770.25
2023-03-29T16:34:59.407Z,100770.81
2023-03-29T16:36:56.296Z,100772.34
2023-03-29T16:38:51.751Z,100771.81
2023-03-29T16:40:46.869Z,100769.19
2023-03-29T16:42:42.409Z,100762.66
2023-03-29T16:44:37.492Z,100770.56
2023-03-29T16:46:39.648Z,100765.84
2023-03-29T16:48:35.645Z,100760.88
2023-03-29T16:50:32.617Z,100758.06
2023-03-29T16:52:33.190Z,100756.28
2023-03-29T16:54:31.911Z,100759.19
2023-03-29T16:56:28.491Z,100753.91
2023-03-29T16:58:24.628Z,100762.53
2023-03-29T17:00:22.355Z,100756.53
2023-03-29T17:02:22.201Z,100759.88
2023-03-29T17:04:19.507Z,100760.03
2023-03-29T17:06:16.532Z,100759.34
2023-03-29T17:08:13.151Z,100751.03
2023-03-29T17:10:11.853Z,100750.75
2023-03-29T17:12:07.944Z,100745.59
2023-03-29T17:14:04.672Z,100751.94
2023-03-29T17:16:02.150Z,100750.56
2023-03-29T17:18:06.590Z,100752.25
2023-03-29T17:20:02.338Z,100755.44
2023-03-29T17:21:59.487Z,100746.28
2023-03-29T17:23:55.334Z,100751.72
2023-03-29T17:25:51.723Z,100745.59
2023-03-29T17:27:48.346Z,100745.19
2023-03-29T17:29:46.385Z,100743.25
2023-03-29T17:31:48.050Z,100750.59
2023-03-29T17:33:52.445Z,100744.09
2023-03-29T17:35:50.997Z,100748.13
2023-03-29T17:37:51.299Z,100749.63
2023-03-29T17:39:50.576Z,100739.38
2023-03-29T17:41:50.254Z,100742.84
2023-03-29T17:43:50.944Z,100736.59
2023-03-29T17:45:48.502Z,100736.22
2023-03-29T17:47:44.636Z,100735.06
2023-03-29T17:49:44.121Z,100742.00
2023-03-29T17:51:39.638Z,100738.41
2023-03-29T17:53:35.802Z,100742.00
2023-03-29T17:59:00.942Z,100735.94
2023-03-29T18:01:13.011Z,100737.19
2023-03-29T18:03:36.521Z,100742.31
2023-03-29T18:05:34.628Z,100743.44
2023-03-29T18:07:29.769Z,100738.16
2023-03-29T18:09:25.310Z,100748.13
2023-03-29T18:11:24.824Z,100737.47
2023-03-29T18:13:25.555Z,100743.16
2023-03-29T18:15:20.886Z,100747.28
2023-03-29T18:17:17.322Z,100743.16
2023-03-29T18:19:13.677Z,100745.50
2023-03-29T18:21:12.671Z,100744.94
2023-03-29T18:23:08.516Z,100741.75
2023-03-29T18:25:05.955Z,100745.09
2023-03-29T18:27:05.381Z,100748.97
2023-03-29T18:29:02.300Z,100743.44
2023-03-29T18:30:57.640Z,100743.84
2023-03-29T18:32:53.501Z,100749.50
2023-03-29T18:34:49.252Z,100748.69
2023-03-29T18:36:48.273Z,100747.44
2023-03-29T18:38:44.612Z,100746.75
2023-03-29T18:40:41.375Z,100749.38
2023-03-29T18:42:37.299Z,100752.69
2023-03-29T18:44:33.316Z,100750.47
2023-03-29T18:46:31.272Z,100747.28
2023-03-29T18:48:27.597Z,100749.78
2023-03-29T18:50:23.318Z,100748.53
2023-03-29T18:52:21.460Z,100749.78
2023-03-29T18:54:16.612Z,100748.53
2023-03-29T18:56:12.596Z,100752.53
2023-03-29T18:58:07.929Z,100754.94
2023-03-29T19:00:10.705Z,100752.97
2023-03-29T19:02:07.114Z,100754.94
2023-03-29T19:04:03.234Z,100745.78
2023-03-29T19:06:03.310Z,100748.13
2023-03-29T19:08:44.340Z,100749.94
2023-03-29T19:10:49.245Z,100749.50
2023-03-29T19:13:04.428Z,100742.59
2023-03-29T19:15:25.781Z,100741.78
2023-03-29T19:17:21.248Z,100747.31
2023-03-29T19:19:18.648Z,100736.09
2023-03-29T19:21:16.072Z,100734.72
2023-03-29T19:23:11.337Z,100734.84
2023-03-29T19:25:10.854Z,100733.88
2023-03-29T19:27:12.007Z,100728.50
2023-03-29T19:29:08.741Z,100733.47
2023-03-29T19:31:07.279Z,100731.13
2023-03-29T19:33:04.664Z,100737.06
2023-03-29T19:35:45.439Z,100736.09
2023-03-29T19:38:15.767Z,100732.50
2023-03-29T19:40:49.981Z,100727.94
2023-03-29T19:43:19.766Z,100721.56
2023-03-29T19:45:15.422Z,100724.31
2023-03-29T19:47:13.594Z,100722.66
2023-03-29T19:49:09.864Z,100713.81
2023-03-29T19:51:06.878Z,100708.94
2023-03-29T19:53:02.256Z,100713.22
2023-03-29T19:54:58.725Z,100709.91
2023-03-29T19:56:57.852Z,100706.03
2023-03-29T19:58:53.964Z,100704.81
2023-03-29T20:00:55.951Z,100701.78
2023-03-29T20:02:52.967Z,100700.09
2023-03-29T20:04:48.520Z,100700.94
2023-03-29T20:06:44.159Z,100700.81
2023-03-29T20:08:39.221Z,100700.94
2023-03-29T20:10:42.696Z,100694.56
2023-03-29T20:13:12.506Z,100691.94
2023-03-29T20:15:16.191Z,100691.25
2023-03-29T20:17:45.357Z,100687.78
2023-03-29T20:20:38.523Z,100681.94
2023-03-29T20:23:26.150Z,100689.44
2023-03-29T20:34:44.866Z,100691.78
2023-03-29T20:36:43.156Z,100684.31
2023-03-29T20:38:43.544Z,100682.22
2023-03-29T20:40:42.000Z,100676.44
2023-03-29T20:42:46.999Z,100672.84
2023-03-29T20:44:51.227Z,100670.06
2023-03-29T20:46:55.268Z,100664.25
2023-03-29T20:48:57.031Z,100664.25
2023-03-29T20:50:56.525Z,100660.66
2023-03-29T20:52:54.562Z,100656.09
2023-03-29T20:54:52.329Z,100658.56
2023-03-29T20:56:49.981Z,100661.34
2023-03-29T20:58:46.168Z,100659.69
2023-03-29T21:00:44.660Z,100651.66
2023-03-29T21:02:39.996Z,100646.66
2023-03-29T21:04:36.584Z,100641.97
2023-03-29T21:06:33.832Z,100642.66
2023-03-29T21:08:31.643Z,100642.53
2023-03-29T21:10:28.533Z,100646.25
2023-03-29T21:12:24.173Z,100647.34
2023-03-29T21:14:21.268Z,100647.50
2023-03-29T21:16:20.846Z,100644.31
2023-03-29T21:18:16.761Z,100644.47
2023-03-29T21:20:15.118Z,100646.53
2023-03-29T21:22:14.197Z,100645.44
2023-03-29T21:24:13.654Z,100639.91
2023-03-29T21:26:10.261Z,100633.81
2023-03-29T21:28:07.464Z,100633.28
2023-03-29T21:30:05.580Z,100632.78
2023-03-29T21:32:08.681Z,100634.38
2023-03-29T21:34:06.035Z,100636.59
2023-03-29T21:36:03.500Z,100631.97
2023-03-29T21:38:00.004Z,100629.47
2023-03-29T21:39:56.873Z,100630.31
2023-03-29T21:41:54.645Z,100621.47
2023-03-29T21:43:51.474Z,100616.50
2023-03-29T21:45:54.400Z,100611.06
2023-03-29T21:47:56.464Z,100609.81
2023-03-29T21:50:03.449Z,100606.50
2023-03-29T21:52:02.982Z,100596.47
2023-03-29T21:53:59.921Z,100591.72
2023-03-29T21:55:58.435Z,100584.53
2023-03-29T21:57:54.429Z,100585.66
2023-03-29T21:59:53.308Z,100590.22
2023-03-29T22:01:50.389Z,100590.47
2023-03-29T22:03:54.278Z,100594.22
2023-03-29T22:06:03.093Z,100590.59
2023-03-29T22:08:00.375Z,100588.66
2023-03-29T22:09:58.894Z,100587.97
2023-03-29T22:11:57.510Z,100588.53
2023-03-29T22:13:58.499Z,100585.22
2023-03-29T22:16:00.434Z,100578.16
2023-03-29T22:17:59.758Z,100577.63
2023-03-29T22:20:01.288Z,100578.31
2023-03-29T22:22:01.987Z,100586.03
2023-03-29T22:24:01.730Z,100588.53
2023-03-29T22:26:00.941Z,100578.03
2023-03-29T22:28:59.403Z,100586.03
2023-03-29T22:52:35.220Z,100567.22
2023-03-29T22:55:09.419Z,100572.34
2023-03-29T22:57:14.474Z,100565.56
2023-03-29T23:03:54.683Z,100554.91
2023-03-29T23:06:44.112Z,100555.06
2023-03-29T23:08:48.121Z,100551.28
2023-03-29T23:10:43.624Z,100543.41
2023-03-29T23:12:39.588Z,100543.56
2023-03-29T23:14:37.817Z,100541.06
2023-03-29T23:16:34.427Z,100534.44
2023-03-29T23:18:35.063Z,100532.66
2023-03-29T23:20:30.511Z,100531.00
2023-03-29T23:22:26.586Z,100527.25
2023-03-29T23:24:26.389Z,100532.78
2023-03-29T23:26:24.637Z,100525.59
2023-03-29T23:28:23.747Z,100528.50
2023-03-29T23:30:20.869Z,100528.09
2023-03-29T23:32:16.863Z,100524.22
2023-03-29T23:34:13.596Z,100526.72
2023-03-29T23:36:11.656Z,100516.88
2023-03-29T23:38:12.186Z,100525.47
2023-03-29T23:40:14.394Z,100521.88
2023-03-29T23:42:11.608Z,100518.53
2023-03-29T23:44:11.651Z,100517.41
2023-03-29T23:46:11.061Z,100516.31
2023-03-29T23:48:06.611Z,100522.25
2023-03-29T23:50:03.024Z,100518.09
2023-03-29T23:52:02.755Z,100514.66
2023-03-29T23:54:03.030Z,100510.22
2023-03-29T23:56:06.461Z,100510.38
2023-03-29T23:58:02.555Z,100507.47
